This is the latest recevied weather packets stored in our database for station/object OK1OBR-13. If no packets are shown the sender has not sent any weather packets the latest 1 day(s).
| Time | Temp. | Humidity | Pressure | Rain* | Wind** | Luminosity | Snow |
|---|---|---|---|---|---|---|---|
| 1778017502 | 14.44° C | 61% | 927.4 hPa | 0 mm | 1.34 m/s, 159° | - | - |
| 1778017441 | 14.44° C | 62% | 927.5 hPa | 0 mm | 1.34 m/s, 129° | - | - |
| 1778017381 | 14.44° C | 62% | 927.4 hPa | 0 mm | 0.89 m/s, 158° | - | - |
| 1778017321 | 14.44° C | 62% | 927.5 hPa | 0 mm | 1.34 m/s, 129° | - | - |
| 1778017261 | 14.44° C | 61% | 927.2 hPa | 0 mm | 1.79 m/s, 175° | - | - |
| 1778017201 | 14.44° C | 61% | 927.5 hPa | 0 mm | 1.34 m/s, 141° | - | - |
| 1778017141 | 14.44° C | 61% | 927.6 hPa | 0 mm | 1.34 m/s, 168° | - | - |
| 1778017081 | 14.44° C | 61% | 927.6 hPa | 0 mm | 1.34 m/s, 168° | - | - |
| 1778017021 | 14.44° C | 61% | 927.5 hPa | 0 mm | 1.79 m/s, 136° | - | - |
| 1778016961 | 14.44° C | 61% | 927.4 hPa | 0 mm | 1.79 m/s, 176° | - | - |
| 1778016901 | 14.44° C | 61% | 927.3 hPa | 0 mm | 1.34 m/s, 163° | - | - |
| 1778016841 | 14.44° C | 61% | 927.3 hPa | 0 mm | 1.34 m/s, 163° | - | - |
| 1778016781 | 14.44° C | 61% | 927.3 hPa | 0 mm | 2.24 m/s, 138° | - | - |
| 1778016721 | 14.44° C | 61% | 927.4 hPa | 0 mm | 1.34 m/s, 130° | - | - |
| 1778016661 | 14.44° C | 61% | 927.5 hPa | 0 mm | 1.34 m/s, 166° | - | - |
| 1778016605 | 14.44° C | 61% | 927.3 hPa | 0 mm | 1.34 m/s, 163° | - | - |
| 1778016541 | 14.44° C | 61% | 927.5 hPa | 0 mm | 1.34 m/s, 138° | - | - |
| 1778016481 | 14.44° C | 61% | 927.3 hPa | 0 mm | 1.34 m/s, 179° | - | - |
| 1778016421 | 14.44° C | 61% | 927.4 hPa | 0 mm | 1.79 m/s, 118° | - | - |
| 1778016362 | 14.44° C | 61% | 927.3 hPa | 0 mm | 1.34 m/s, 137° | - | - |
| 1778016301 | 14.44° C | 61% | 927.3 hPa | 0 mm | 1.34 m/s, 174° | - | - |
| 1778016242 | 14.44° C | 61% | 927.2 hPa | 0 mm | 1.79 m/s, 161° | - | - |
| 1778016181 | 14.44° C | 61% | 927.2 hPa | 0 mm | 1.79 m/s, 148° | - | - |
| 1778016121 | 14.44° C | 61% | 927.2 hPa | 0 mm | 1.34 m/s, 134° | - | - |
| 1778016065 | 14.44° C | 61% | 927.2 hPa | 0 mm | 1.34 m/s, 143° | - | - |
* Rain since midnight (hover to see other rain measurements)
** Current wind speed in m/s (hover to see current wind gust speed)